createdAt,value
2022-10-21T00:04:50.228Z,13.80
2022-10-21T00:09:52.206Z,14.80
2022-10-21T00:14:56.441Z,16.40
2022-10-21T00:19:59.150Z,16.20
2022-10-21T00:25:00.956Z,15.40
2022-10-21T00:30:05.415Z,15.50
2022-10-21T00:35:07.543Z,15.50
2022-10-21T00:40:09.772Z,14.90
2022-10-21T00:45:17.215Z,17.50
2022-10-21T00:50:28.154Z,16.60
2022-10-21T00:55:34.186Z,16.90
2022-10-21T01:00:36.176Z,20.60
2022-10-21T01:05:40.812Z,17.70
2022-10-21T01:10:42.660Z,20.70
2022-10-21T01:15:58.132Z,17.80
2022-10-21T01:21:26.041Z,16.00
2022-10-21T01:26:56.076Z,16.30
2022-10-21T01:32:33.132Z,13.50
2022-10-21T01:37:43.745Z,14.80
2022-10-21T01:42:53.634Z,14.70
2022-10-21T01:48:03.035Z,15.10
2022-10-21T01:53:11.636Z,14.20
2022-10-21T01:58:19.730Z,14.30
2022-10-21T02:03:26.215Z,17.30
2022-10-21T02:08:28.195Z,15.10
2022-10-21T02:13:40.124Z,16.50
2022-10-21T02:18:41.905Z,16.50
2022-10-21T02:23:54.575Z,17.00
2022-10-21T02:28:59.421Z,17.10
2022-10-21T02:34:10.367Z,15.60
2022-10-21T02:39:21.189Z,16.80
2022-10-21T02:44:23.603Z,17.80
2022-10-21T02:49:25.405Z,16.60
2022-10-21T02:54:27.183Z,12.30
2022-10-21T02:59:29.064Z,13.20
2022-10-21T03:04:30.812Z,13.50
2022-10-21T03:09:32.737Z,14.60
2022-10-21T03:14:34.463Z,13.50
2022-10-21T03:19:36.244Z,14.60
2022-10-21T03:24:37.972Z,15.40
2022-10-21T03:29:39.833Z,16.20
2022-10-21T03:34:41.655Z,14.40
2022-10-21T03:39:43.632Z,16.30
2022-10-21T03:44:45.549Z,14.70
2022-10-21T03:49:47.273Z,14.20
2022-10-21T03:54:49.119Z,16.40
2022-10-21T03:59:50.840Z,15.20
2022-10-21T04:04:52.585Z,16.10
2022-10-21T04:09:54.348Z,14.90
2022-10-21T04:14:56.138Z,16.00
2022-10-21T04:19:57.916Z,14.40
2022-10-21T04:25:02.274Z,15.30
2022-10-21T04:30:07.363Z,15.80
2022-10-21T04:35:09.273Z,14.10
2022-10-21T04:40:11.287Z,16.30
2022-10-21T04:45:13.015Z,15.30
2022-10-21T04:50:14.830Z,15.00
2022-10-21T04:55:16.731Z,12.50
2022-10-21T05:00:18.719Z,15.80
2022-10-21T05:05:20.441Z,16.70
2022-10-21T05:10:23.859Z,18.40
2022-10-21T05:15:26.248Z,20.00
2022-10-21T05:20:28.198Z,20.70
2022-10-21T05:25:31.841Z,22.80
2022-10-21T05:30:36.178Z,23.80
2022-10-21T05:35:37.990Z,25.40
2022-10-21T05:40:39.794Z,26.80
2022-10-21T05:45:41.499Z,25.70
2022-10-21T05:50:43.454Z,19.30
2022-10-21T05:55:45.187Z,26.30
2022-10-21T06:00:56.291Z,28.30
2022-10-21T06:06:00.320Z,25.70
2022-10-21T06:11:07.103Z,27.30
2022-10-21T06:16:10.064Z,28.70
2022-10-21T06:21:13.381Z,28.90
2022-10-21T06:26:16.763Z,25.80
2022-10-21T06:31:21.640Z,22.90
2022-10-21T06:36:23.382Z,28.50
2022-10-21T06:41:25.356Z,29.30
2022-10-21T06:46:27.285Z,28.10
2022-10-21T06:51:29.583Z,24.40
2022-10-21T06:56:31.955Z,20.90
2022-10-21T07:01:48.122Z,18.30
2022-10-21T07:06:55.574Z,21.00
2022-10-21T07:11:57.352Z,17.50
2022-10-21T07:16:59.116Z,16.80
2022-10-21T07:22:01.318Z,14.60
2022-10-21T07:27:03.127Z,12.90
2022-10-21T07:32:05.016Z,11.70
2022-10-21T07:37:06.913Z,10.30
2022-10-21T07:42:09.906Z,10.80
2022-10-21T07:47:11.631Z,9.60
2022-10-21T07:57:20.146Z,10.40
2022-10-21T08:02:24.098Z,9.40
2022-10-21T08:07:25.910Z,8.50
2022-10-21T08:12:27.659Z,9.90
2022-10-21T08:17:29.376Z,10.00
2022-10-21T08:22:31.064Z,9.60
2022-10-21T08:27:33.953Z,8.60
2022-10-21T08:32:35.908Z,9.40
2022-10-21T08:37:38.104Z,9.90
2022-10-21T08:42:42.646Z,10.30
2022-10-21T08:47:50.032Z,12.40
2022-10-21T08:52:58.844Z,11.20
2022-10-21T08:58:01.979Z,11.80
2022-10-21T09:03:31.560Z,13.30
2022-10-21T09:08:42.079Z,13.60
2022-10-21T09:14:13.180Z,11.20
2022-10-21T09:19:24.042Z,11.50
2022-10-21T09:24:32.828Z,14.00
2022-10-21T09:29:43.404Z,13.20
2022-10-21T09:35:29.654Z,12.60
2022-10-21T09:40:31.982Z,12.00
2022-10-21T09:45:43.861Z,12.60
2022-10-21T09:50:48.478Z,12.60
2022-10-21T09:55:56.355Z,12.20
2022-10-21T10:00:58.944Z,12.50
2022-10-21T10:06:01.722Z,9.80
2022-10-21T10:11:03.485Z,11.00
2022-10-21T10:16:17.455Z,12.30
2022-10-21T10:21:21.284Z,11.50
2022-10-21T10:26:32.334Z,11.90
2022-10-21T10:31:36.138Z,10.60
2022-10-21T10:36:40.475Z,12.80
2022-10-21T10:41:47.434Z,14.60
2022-10-21T10:46:55.971Z,10.80
2022-10-21T10:52:09.652Z,9.20
2022-10-21T10:57:18.474Z,9.30
2022-10-21T11:02:48.258Z,9.50
2022-10-21T11:07:52.919Z,9.10
2022-10-21T11:12:54.720Z,8.30
2022-10-21T11:18:17.008Z,7.40
2022-10-21T11:23:52.350Z,7.80
2022-10-21T11:29:12.075Z,5.90
2022-10-21T11:34:22.517Z,5.00
2022-10-21T11:39:48.593Z,5.70
2022-10-21T11:45:02.401Z,4.90
2022-10-21T11:50:35.587Z,5.10
2022-10-21T11:55:43.792Z,4.30
2022-10-21T12:01:14.911Z,5.60
2022-10-21T12:06:30.588Z,5.40
2022-10-21T12:11:41.868Z,5.20
2022-10-21T12:16:45.347Z,4.70
2022-10-21T12:21:47.549Z,5.30
2022-10-21T12:26:58.429Z,5.40
2022-10-21T12:32:10.720Z,5.20
2022-10-21T12:37:50.441Z,5.60
2022-10-21T12:43:05.342Z,6.50
2022-10-21T12:48:32.661Z,5.70
2022-10-21T12:53:42.223Z,5.10
2022-10-21T12:58:46.225Z,5.80
2022-10-21T13:03:52.312Z,5.50
2022-10-21T13:08:55.677Z,5.80
2022-10-21T13:14:33.503Z,4.80
2022-10-21T13:19:37.943Z,5.40
2022-10-21T13:24:41.175Z,6.20
2022-10-21T13:29:48.447Z,5.80
2022-10-21T13:35:01.927Z,6.60
2022-10-21T13:40:07.835Z,4.70
2022-10-21T13:45:48.178Z,8.00
2022-10-21T13:50:51.933Z,4.00
2022-10-21T13:55:59.341Z,3.90
2022-10-21T14:01:27.397Z,3.70
2022-10-21T14:06:36.168Z,3.90
2022-10-21T14:11:46.981Z,3.80
2022-10-21T14:16:52.990Z,4.40
2022-10-21T14:21:58.667Z,3.50
2022-10-21T14:27:01.894Z,4.20
2022-10-21T14:32:05.722Z,3.40
2022-10-21T14:37:11.874Z,3.20
2022-10-21T14:42:20.256Z,4.60
2022-10-21T14:47:25.612Z,4.20
2022-10-21T14:52:32.710Z,4.50
2022-10-21T14:57:53.692Z,4.00
2022-10-21T15:02:56.867Z,4.50
2022-10-21T15:08:21.679Z,4.60
2022-10-21T15:13:25.878Z,4.20
2022-10-21T15:18:36.875Z,4.10
2022-10-21T15:23:42.136Z,4.00
2022-10-21T15:28:44.580Z,4.80
2022-10-21T15:33:48.768Z,4.10
2022-10-21T15:38:50.906Z,14.20
2022-10-21T15:44:04.463Z,4.10
2022-10-21T15:49:13.310Z,4.30
2022-10-21T15:54:16.206Z,4.30
2022-10-21T15:59:27.033Z,3.60
2022-10-21T16:04:28.800Z,4.60
2022-10-21T16:09:30.528Z,4.50
2022-10-21T16:14:32.340Z,4.60
2022-10-21T16:19:34.135Z,4.60
2022-10-21T16:24:35.829Z,4.50
2022-10-21T16:29:37.666Z,6.50
2022-10-21T16:34:40.259Z,5.70
2022-10-21T16:39:42.087Z,6.10
2022-10-21T16:44:46.768Z,5.60
2022-10-21T16:49:49.314Z,5.10
2022-10-21T16:54:51.217Z,5.20
2022-10-21T16:59:53.229Z,4.40
2022-10-21T17:04:55.309Z,4.60
2022-10-21T17:09:57.139Z,3.90
2022-10-21T17:14:59.555Z,4.50
2022-10-21T17:20:01.440Z,4.50
2022-10-21T17:25:04.169Z,3.80
2022-10-21T17:30:06.620Z,4.20
2022-10-21T17:35:14.999Z,4.20
2022-10-21T17:40:27.315Z,3.90
2022-10-21T17:45:29.172Z,4.50
2022-10-21T17:50:32.018Z,4.90
2022-10-21T17:55:33.853Z,4.00
2022-10-21T18:00:35.893Z,4.70
2022-10-21T18:05:41.306Z,4.00
2022-10-21T18:10:43.221Z,4.80
2022-10-21T18:15:45.108Z,4.80
2022-10-21T18:20:47.376Z,4.20
2022-10-21T18:25:49.112Z,4.70
2022-10-21T18:30:52.038Z,4.30
2022-10-21T18:35:54.454Z,5.10
2022-10-21T18:41:01.934Z,4.70
2022-10-21T18:46:05.272Z,5.30
2022-10-21T18:51:09.366Z,4.80
2022-10-21T18:56:13.585Z,5.00
2022-10-21T19:01:15.863Z,5.30
2022-10-21T19:06:36.243Z,5.60
2022-10-21T19:16:40.255Z,7.30
2022-10-21T19:21:42.484Z,6.30
2022-10-21T19:26:46.336Z,5.80
2022-10-21T19:31:48.871Z,6.10
2022-10-21T19:36:53.021Z,5.90
2022-10-21T19:41:54.998Z,5.60
2022-10-21T19:46:56.872Z,6.30
2022-10-21T19:51:58.850Z,6.60
2022-10-21T19:57:00.697Z,6.40
2022-10-21T20:02:03.061Z,6.30
2022-10-21T20:07:05.107Z,6.00
2022-10-21T20:12:06.901Z,6.30
2022-10-21T20:17:08.966Z,6.60
2022-10-21T20:22:10.787Z,6.60
2022-10-21T20:27:12.577Z,6.30
2022-10-21T20:32:14.391Z,6.30
2022-10-21T20:37:16.187Z,5.50
2022-10-21T20:42:18.032Z,5.00
2022-10-21T20:47:19.872Z,5.00
2022-10-21T20:52:21.709Z,6.00
2022-10-21T20:57:23.641Z,4.90
2022-10-21T21:02:25.349Z,5.30
2022-10-21T21:07:27.128Z,5.00
2022-10-21T21:12:33.845Z,5.20
2022-10-21T21:17:35.640Z,4.70
2022-10-21T21:22:37.887Z,5.00
2022-10-21T21:27:40.131Z,5.00
2022-10-21T21:32:44.171Z,5.30
2022-10-21T21:37:46.171Z,5.10
2022-10-21T21:42:47.948Z,5.30
2022-10-21T21:47:50.688Z,4.60
2022-10-21T21:52:52.426Z,5.60
2022-10-21T21:57:54.172Z,4.90
2022-10-21T22:02:56.359Z,4.90
2022-10-21T22:07:59.124Z,5.40
2022-10-21T22:13:01.040Z,4.60
2022-10-21T22:18:02.793Z,4.40
2022-10-21T22:23:05.180Z,3.90
2022-10-21T22:28:06.895Z,3.50
2022-10-21T22:33:08.759Z,4.90
2022-10-21T22:38:10.484Z,4.70
2022-10-21T22:43:12.333Z,4.70
2022-10-21T22:48:14.142Z,4.70
2022-10-21T22:53:15.958Z,5.30
2022-10-21T22:58:19.951Z,4.70
2022-10-21T23:03:21.752Z,5.30
2022-10-21T23:08:25.827Z,5.00
2022-10-21T23:13:35.411Z,4.10
2022-10-21T23:18:37.234Z,4.00
2022-10-21T23:23:39.259Z,4.20
2022-10-21T23:28:40.991Z,4.10
2022-10-21T23:33:43.104Z,4.30
2022-10-21T23:38:44.849Z,4.00
2022-10-21T23:43:46.610Z,4.30
2022-10-21T23:48:48.692Z,4.10
2022-10-21T23:53:50.464Z,4.50
2022-10-21T23:58:52.256Z,4.10
